Time;durP1;ratioP1;P1;durP2;ratioP2;P2;SDS_P1;SDS_P2;PMS_P1;PMS_P2;Temp;Humidity;BMP_temperature;BMP_pressure;BME280_temperature;BME280_humidity;BME280_pressure;Samples;Min_cycle;Max_cycle;Signal;HPM_P1;HPM_P2
2020/12/12 00:01:49;;;;;;;15.77;8.68;;;;;;;3.24;80.40;100350.97;5051447;28;20374;-75
2020/12/12 00:04:14;;;;;;;15.48;8.05;;;;;;;3.25;80.50;100342.66;5051882;28;20025;-76
2020/12/12 00:06:39;;;;;;;18.38;9.32;;;;;;;3.27;80.73;100345.09;5051505;28;20021;-76
2020/12/12 00:09:05;;;;;;;13.23;8.48;;;;;;;3.26;80.57;100344.28;5052520;28;20032;-76
2020/12/12 00:11:30;;;;;;;17.45;10.07;;;;;;;3.26;80.19;100352.38;5066963;28;20040;-76
2020/12/12 00:13:55;;;;;;;16.05;8.68;;;;;;;3.26;80.41;100348.88;5038004;28;20028;-76
2020/12/12 00:16:21;;;;;;;14.82;8.88;;;;;;;3.25;80.53;100347.25;5051613;28;20024;-76
2020/12/12 00:18:47;;;;;;;17.52;10.30;;;;;;;3.24;80.38;100350.97;5051390;28;20029;-76
2020/12/12 00:21:12;;;;;;;16.00;8.40;;;;;;;3.23;80.03;100349.34;5051529;28;20403;-76
2020/12/12 00:23:38;;;;;;;15.93;8.93;;;;;;;3.22;80.14;100345.00;5033269;28;20090;-76
2020/12/12 00:26:03;;;;;;;16.38;8.82;;;;;;;3.22;80.35;100348.53;5051831;28;20028;-76
2020/12/12 00:28:31;;;;;;;16.08;9.18;;;;;;;3.23;80.04;100352.03;5033692;28;20033;-75
2020/12/12 00:30:56;;;;;;;13.68;8.40;;;;;;;3.24;80.46;100346.41;5051267;28;20466;-76
2020/12/12 00:33:22;;;;;;;16.30;9.25;;;;;;;3.23;79.91;100350.16;5050557;28;20087;-76
2020/12/12 00:35:47;;;;;;;14.15;8.00;;;;;;;3.24;80.08;100356.34;5047598;28;20029;-77
2020/12/12 00:38:14;;;;;;;18.85;9.27;;;;;;;3.23;80.38;100357.41;5050794;28;20377;-76
2020/12/12 00:40:39;;;;;;;16.58;8.55;;;;;;;3.22;80.25;100355.75;5051923;28;20031;-76
2020/12/12 00:43:05;;;;;;;18.05;9.13;;;;;;;3.22;80.44;100355.75;5050599;28;20025;-76
2020/12/12 00:45:30;;;;;;;15.80;8.95;;;;;;;3.24;80.73;100356.34;5048744;28;20037;-76
2020/12/12 00:47:55;;;;;;;16.58;7.82;;;;;;;3.25;79.98;100364.22;5048840;28;20028;-76
2020/12/12 00:50:23;;;;;;;16.20;8.77;;;;;;;3.24;80.55;100364.44;5060922;28;20040;-76
2020/12/12 00:52:48;;;;;;;15.65;7.90;;;;;;;3.24;80.32;100362.56;5050856;28;20029;-76
2020/12/12 00:55:14;;;;;;;16.83;8.93;;;;;;;3.25;80.38;100358.81;5049204;28;20500;-76
2020/12/12 00:57:39;;;;;;;14.75;7.53;;;;;;;3.26;80.50;100356.94;5049946;28;20025;-76
2020/12/12 01:00:06;;;;;;;16.70;7.20;;;;;;;3.25;80.07;100360.72;5052415;28;20029;-76
2020/12/12 01:02:31;;;;;;;13.75;7.68;;;;;;;3.25;80.23;100356.13;5048399;28;20029;-76
2020/12/12 01:04:57;;;;;;;15.02;8.07;;;;;;;3.26;80.32;100365.03;5031742;28;20032;-76
2020/12/12 01:07:22;;;;;;;16.67;8.32;;;;;;;3.26;80.41;100359.66;5046944;28;20398;-75
2020/12/12 01:09:48;;;;;;;13.85;8.35;;;;;;;3.28;80.32;100368.31;5050022;28;20471;-77
2020/12/12 01:12:13;;;;;;;14.70;8.18;;;;;;;3.28;80.12;100368.31;5051099;28;20040;-75
2020/12/12 01:14:38;;;;;;;12.98;6.97;;;;;;;3.28;80.49;100363.75;5033392;28;20055;-75
2020/12/12 01:17:04;;;;;;;15.23;7.10;;;;;;;3.29;80.56;100359.16;5049189;28;20079;-75
2020/12/12 01:19:29;;;;;;;16.60;7.55;;;;;;;3.28;80.07;100357.53;5050207;28;20032;-75
2020/12/12 01:21:55;;;;;;;12.57;7.07;;;;;;;3.27;79.99;100361.28;5067251;28;20033;-75
2020/12/12 01:24:20;;;;;;;12.10;7.25;;;;;;;3.26;80.50;100359.66;5060228;28;20017;-74
2020/12/12 01:26:47;;;;;;;14.38;8.10;;;;;;;3.24;80.30;100362.56;5048206;28;20363;-74
2020/12/12 01:29:12;;;;;;;13.85;7.88;;;;;;;3.23;80.05;100365.50;5048931;28;20068;-74
2020/12/12 01:31:38;;;;;;;11.98;6.97;;;;;;;3.22;80.27;100363.84;5050006;28;20028;-75
2020/12/12 01:34:03;;;;;;;14.93;8.15;;;;;;;3.21;79.84;100368.41;5050807;28;20094;-74
2020/12/12 01:36:29;;;;;;;15.93;8.85;;;;;;;3.19;80.06;100375.09;5049971;28;20048;-74
2020/12/12 01:38:54;;;;;;;13.98;8.02;;;;;;;3.17;80.52;100367.25;5048460;28;20017;-73
2020/12/12 01:41:20;;;;;;;14.65;8.27;;;;;;;3.15;80.97;100372.06;5049744;28;20432;-74
2020/12/12 01:43:49;;;;;;;13.55;8.48;;;;;;;3.15;80.67;100363.97;5051031;28;20040;-75
2020/12/12 01:46:17;;;;;;;15.00;8.82;;;;;;;3.12;80.74;100359.06;5049791;28;20428;-74
2020/12/12 01:48:43;;;;;;;15.55;8.13;;;;;;;3.07;80.61;100359.75;5033132;28;20115;-75
2020/12/12 01:51:09;;;;;;;14.45;7.93;;;;;;;3.03;80.61;100355.91;5048909;28;20486;-75
2020/12/12 01:53:34;;;;;;;14.35;7.90;;;;;;;3.02;80.53;100365.03;5052920;28;20044;-75
2020/12/12 01:55:59;;;;;;;14.73;8.93;;;;;;;3.00;80.45;100366.31;5054988;28;20040;-74
2020/12/12 01:58:25;;;;;;;16.15;9.32;;;;;;;2.98;80.24;100361.19;5054183;28;20017;-74
2020/12/12 02:00:50;;;;;;;16.05;8.20;;;;;;;3.00;80.55;100360.94;5054815;28;20029;-74
2020/12/12 02:03:15;;;;;;;16.40;8.20;;;;;;;3.03;80.45;100360.47;5054966;28;20013;-77
2020/12/12 02:05:44;;;;;;;14.63;7.57;;;;;;;3.05;80.85;100363.75;5034275;28;20025;-78
2020/12/12 02:08:16;;;;;;;15.43;7.50;;;;;;;3.05;80.33;100359.16;5069804;28;20032;-76
2020/12/12 02:10:43;;;;;;;15.25;8.07;;;;;;;3.06;80.30;100366.22;5054705;28;20037;-76
2020/12/12 02:13:09;;;;;;;16.23;7.93;;;;;;;3.06;80.58;100365.41;5052413;28;20036;-75
2020/12/12 02:15:34;;;;;;;15.98;8.38;;;;;;;3.08;80.41;100369.50;5053428;28;20108;-75
2020/12/12 02:18:00;;;;;;;17.38;8.45;;;;;;;3.09;80.53;100376.50;5052097;28;20059;-75
2020/12/12 02:20:26;;;;;;;14.15;7.78;;;;;;;3.09;81.02;100370.31;5054478;28;20036;-74
2020/12/12 02:22:51;;;;;;;14.52;7.97;;;;;;;3.08;81.04;100364.13;5050606;28;20470;-75
2020/12/12 02:25:17;;;;;;;16.60;8.10;;;;;;;3.10;80.76;100364.69;5079062;28;20075;-74
2020/12/12 02:27:42;;;;;;;14.38;7.70;;;;;;;3.14;80.71;100369.59;5052938;28;20393;-75
2020/12/12 02:30:08;;;;;;;15.20;8.15;;;;;;;3.15;80.86;100363.16;5054198;28;20052;-74
2020/12/12 02:32:33;;;;;;;13.55;7.57;;;;;;;3.14;80.89;100362.34;5053558;28;20040;-75
2020/12/12 02:35:00;;;;;;;16.42;7.57;;;;;;;3.16;80.72;100370.19;5051359;28;20017;-74
2020/12/12 02:37:25;;;;;;;11.90;6.60;;;;;;;3.16;80.87;100370.19;5065028;28;20030;-74
2020/12/12 02:39:50;;;;;;;13.13;7.95;;;;;;;3.17;81.07;100366.44;5051739;28;20031;-74
2020/12/12 02:42:16;;;;;;;12.88;7.43;;;;;;;3.16;81.06;100364.78;5053020;28;20028;-75
2020/12/12 02:44:41;;;;;;;14.30;7.47;;;;;;;3.17;80.91;100363.75;5054160;28;20039;-75
2020/12/12 02:47:06;;;;;;;14.57;7.32;;;;;;;3.17;80.87;100363.75;5034074;28;20029;-74
2020/12/12 02:49:32;;;;;;;14.93;7.40;;;;;;;3.17;80.40;100363.75;5053648;28;20033;-74
2020/12/12 02:51:57;;;;;;;14.52;8.15;;;;;;;3.18;81.03;100362.69;5052055;28;20029;-75
2020/12/12 02:54:23;;;;;;;13.30;7.80;;;;;;;3.19;80.65;100358.94;5054694;28;20094;-74
2020/12/12 02:56:48;;;;;;;13.85;7.28;;;;;;;3.21;80.74;100359.53;5052625;28;20021;-75
2020/12/12 02:59:13;;;;;;;15.23;8.63;;;;;;;3.21;80.62;100356.84;5051792;28;20025;-74
2020/12/12 03:01:40;;;;;;;17.73;7.82;;;;;;;3.23;80.51;100349.34;5050980;28;20036;-75
2020/12/12 03:04:05;;;;;;;15.90;8.18;;;;;;;3.22;80.45;100362.00;5051519;28;20078;-75
2020/12/12 03:06:30;;;;;;;16.33;8.15;;;;;;;3.25;80.80;100352.63;5053559;28;20025;-75
2020/12/12 03:08:56;;;;;;;14.48;7.97;;;;;;;3.24;80.73;100356.34;5052835;28;20021;-75
2020/12/12 03:11:21;;;;;;;17.25;7.43;;;;;;;3.25;80.79;100356.13;5050217;28;20033;-75
2020/12/12 03:13:46;;;;;;;13.18;7.53;;;;;;;3.26;81.25;100354.25;5018245;28;20025;-75
2020/12/12 03:16:12;;;;;;;17.30;8.75;;;;;;;3.27;80.74;100358.56;5051491;28;20035;-75
2020/12/12 03:18:37;;;;;;;15.77;9.00;;;;;;;3.27;81.12;100355.88;5052526;28;20025;-75
2020/12/12 03:21:03;;;;;;;14.82;8.00;;;;;;;3.28;80.90;100361.03;5052292;28;20082;-75
2020/12/12 03:23:28;;;;;;;14.45;8.00;;;;;;;3.30;80.92;100355.41;5053536;28;20023;-75
2020/12/12 03:25:53;;;;;;;16.42;7.53;;;;;;;3.31;80.67;100355.19;5052941;28;20027;-75
2020/12/12 03:28:19;;;;;;;17.55;8.70;;;;;;;3.31;81.00;100352.50;5051053;28;20470;-75
2020/12/12 03:30:44;;;;;;;15.00;8.30;;;;;;;3.33;81.02;100354.97;5052198;28;20032;-75
2020/12/12 03:33:09;;;;;;;14.25;7.90;;;;;;;3.33;81.02;100360.34;5053278;28;20062;-75
2020/12/12 03:35:35;;;;;;;14.45;8.50;;;;;;;3.33;81.03;100350.38;5051606;28;20032;-74
2020/12/12 03:38:00;;;;;;;17.70;9.60;;;;;;;3.34;81.03;100352.00;5052285;28;20027;-75
2020/12/12 03:40:26;;;;;;;15.02;8.82;;;;;;;3.34;80.80;100356.59;5050635;28;20095;-74
2020/12/12 03:42:51;;;;;;;17.63;8.85;;;;;;;3.34;80.99;100351.19;5085084;28;20024;-75
2020/12/12 03:45:18;;;;;;;15.98;8.73;;;;;;;3.36;80.83;100359.88;5034233;28;20079;-74
2020/12/12 03:47:44;;;;;;;16.02;9.80;;;;;;;3.36;80.77;100357.19;5050171;28;20498;-75
2020/12/12 03:50:09;;;;;;;15.15;9.00;;;;;;;3.40;80.91;100361.03;5051976;28;20033;-74
2020/12/12 03:52:34;;;;;;;16.20;9.05;;;;;;;3.42;80.65;100355.41;5052519;28;20470;-74
2020/12/12 03:55:00;;;;;;;16.35;9.75;;;;;;;3.43;80.57;100343.56;5051319;28;20028;-74
2020/12/12 03:57:25;;;;;;;17.45;9.15;;;;;;;3.43;81.07;100349.75;5051676;28;20519;-75
2020/12/12 03:59:50;;;;;;;15.30;8.95;;;;;;;3.43;80.97;100354.34;5051457;28;20032;-75
2020/12/12 04:02:16;;;;;;;16.15;8.88;;;;;;;3.44;80.84;100356.81;5051797;28;20048;-75
2020/12/12 04:04:41;;;;;;;14.25;8.55;;;;;;;3.44;80.95;100356.81;5052467;28;20074;-75
2020/12/12 04:07:06;;;;;;;16.35;9.00;;;;;;;3.45;80.85;100355.75;5034261;28;20037;-74
2020/12/12 04:09:32;;;;;;;18.33;8.95;;;;;;;3.45;81.14;100350.34;5051006;28;20032;-75
2020/12/12 04:11:57;;;;;;;20.10;10.10;;;;;;;3.45;80.90;100354.94;5052021;28;20075;-75
2020/12/12 04:14:23;;;;;;;18.23;9.63;;;;;;;3.44;80.96;100356.81;5045782;28;20048;-74
2020/12/12 04:16:49;;;;;;;16.20;9.10;;;;;;;3.45;80.90;100355.75;5049474;28;20028;-74
2020/12/12 04:19:14;;;;;;;17.85;9.73;;;;;;;3.45;80.95;100352.25;5052382;28;20137;-75
2020/12/12 04:21:40;;;;;;;18.40;9.90;;;;;;;3.47;80.81;100355.53;5051724;28;20587;-75
2020/12/12 04:24:05;;;;;;;18.15;10.30;;;;;;;3.46;81.08;100357.38;5045998;28;20025;-75
2020/12/12 04:26:30;;;;;;;17.33;9.90;;;;;;;3.46;80.81;100351.97;5042847;28;20496;-75
2020/12/12 04:28:56;;;;;;;16.90;10.30;;;;;;;3.46;81.15;100360.06;5043672;28;20032;-75
2020/12/12 04:31:21;;;;;;;16.60;10.05;;;;;;;3.47;80.71;100356.34;5046412;28;20394;-75
2020/12/12 04:33:47;;;;;;;17.73;9.48;;;;;;;3.46;81.03;100349.28;5050053;28;20029;-75
2020/12/12 04:36:12;;;;;;;19.10;10.52;;;;;;;3.49;80.99;100353.38;5083191;28;20045;-75
2020/12/12 04:38:38;;;;;;;17.58;9.60;;;;;;;3.50;81.13;100345.06;5051022;28;20028;-75
2020/12/12 04:41:03;;;;;;;18.05;10.20;;;;;;;3.54;80.79;100346.22;5053026;28;20021;-74
2020/12/12 04:43:29;;;;;;;20.10;10.85;;;;;;;3.54;81.17;100351.63;5051176;28;20506;-75
2020/12/12 04:45:55;;;;;;;20.10;10.88;;;;;;;3.53;80.67;100355.38;5051369;28;20112;-75
2020/12/12 04:48:20;;;;;;;16.50;10.55;;;;;;;3.54;81.12;100343.53;5048165;28;20029;-75
2020/12/12 04:50:46;;;;;;;18.92;9.88;;;;;;;3.56;81.08;100349.50;5050768;28;20445;-74
2020/12/12 04:53:24;;;;;;;20.00;10.93;;;;;;;3.58;81.19;100351.16;5050307;28;20048;-75
2020/12/12 04:55:50;;;;;;;19.67;10.52;;;;;;;3.61;81.19;100348.00;5050678;28;20499;-74
2020/12/12 04:58:17;;;;;;;18.58;10.48;;;;;;;3.61;80.71;100348.81;5049527;28;20088;-75
2020/12/12 05:00:44;;;;;;;17.48;9.75;;;;;;;3.62;80.78;100350.44;5046825;28;20132;-75
2020/12/12 05:03:12;;;;;;;17.60;10.10;;;;;;;3.62;80.95;100342.34;5033040;28;20036;-76
2020/12/12 05:05:37;;;;;;;20.33;9.85;;;;;;;3.62;80.93;100341.53;5050036;28;20028;-76
2020/12/12 05:08:02;;;;;;;17.00;10.25;;;;;;;3.60;80.68;100347.16;5049192;28;20033;-76
2020/12/12 05:10:28;;;;;;;19.23;10.82;;;;;;;3.59;80.55;100339.31;5049448;28;20025;-76
2020/12/12 05:12:53;;;;;;;17.10;10.43;;;;;;;3.57;81.06;100336.84;5034279;28;20033;-76
2020/12/12 05:15:21;;;;;;;18.38;9.82;;;;;;;3.55;81.22;100330.91;5050971;28;20522;-76
2020/12/12 05:17:46;;;;;;;19.67;10.43;;;;;;;3.54;81.08;100340.84;5032793;28;20025;-76
2020/12/12 05:20:12;;;;;;;19.33;11.00;;;;;;;3.56;81.03;100340.59;5051254;28;20025;-76
2020/12/12 05:22:38;;;;;;;18.15;10.02;;;;;;;3.57;81.28;100336.84;5049170;28;20454;-76
2020/12/12 05:25:04;;;;;;;18.60;10.85;;;;;;;3.59;81.56;100333.91;5049164;28;20090;-77
2020/12/12 05:27:29;;;;;;;21.60;11.07;;;;;;;3.59;81.36;100333.91;5045120;28;20029;-76
2020/12/12 05:29:58;;;;;;;16.33;10.52;;;;;;;3.59;81.37;100329.34;5049852;28;20028;-76
2020/12/12 05:32:23;;;;;;;17.92;10.52;;;;;;;3.58;81.43;100329.59;5049295;28;20033;-76
2020/12/12 05:34:52;;;;;;;18.42;10.05;;;;;;;3.56;81.35;100327.94;5051172;28;20386;-76
2020/12/12 05:37:18;;;;;;;19.90;10.60;;;;;;;3.58;81.30;100329.59;5048579;28;20371;-77
2020/12/12 05:39:48;;;;;;;20.02;10.48;;;;;;;3.60;81.38;100330.16;5049832;28;20027;-75
2020/12/12 05:42:18;;;;;;;18.40;10.63;;;;;;;3.56;81.06;100336.03;5048882;28;20163;-75
2020/12/12 05:44:47;;;;;;;18.48;10.77;;;;;;;3.52;81.13;100337.56;5034250;28;20033;-75
2020/12/12 05:47:14;;;;;;;19.98;10.65;;;;;;;3.46;81.41;100337.69;5053768;28;20033;-76
2020/12/12 05:49:39;;;;;;;17.50;10.02;;;;;;;3.41;81.41;100330.34;5082983;28;20538;-76
2020/12/12 05:52:04;;;;;;;19.13;10.52;;;;;;;3.37;81.34;100329.16;5048663;28;20037;-76
2020/12/12 05:54:30;;;;;;;20.42;10.68;;;;;;;3.30;81.06;100328.47;5048589;28;20029;-76
2020/12/12 05:56:55;;;;;;;16.55;9.77;;;;;;;3.25;81.48;100331.06;5049486;28;20489;-74
2020/12/12 05:59:21;;;;;;;19.25;10.93;;;;;;;3.22;81.67;100332.38;5028408;28;20378;-75
2020/12/12 06:01:46;;;;;;;17.52;10.68;;;;;;;3.26;81.72;100332.69;5047598;28;20082;-75
2020/12/12 06:04:12;;;;;;;20.33;10.07;;;;;;;3.30;81.94;100333.84;5064849;28;20029;-74
2020/12/12 06:06:43;;;;;;;15.77;9.35;;;;;;;3.33;81.67;100328.84;5033539;28;20040;-75
2020/12/12 06:09:10;;;;;;;17.17;9.63;;;;;;;3.38;81.57;100333.50;5050381;28;20056;-75
2020/12/12 06:11:43;;;;;;;20.58;10.70;;;;;;;3.39;81.46;100335.16;5049423;28;20286;-75
2020/12/12 06:14:08;;;;;;;18.40;10.00;;;;;;;3.42;81.41;100326.59;5047924;28;20426;-76
2020/12/12 06:16:34;;;;;;;17.52;11.15;;;;;;;3.42;81.90;100323.88;5049504;28;20025;-77
2020/12/12 06:19:15;;;;;;;22.27;11.25;;;;;;;3.45;81.48;100325.28;5048163;28;20466;-77
2020/12/12 06:21:44;;;;;;;20.33;11.35;;;;;;;3.47;81.80;100325.88;5050430;28;20474;-76
2020/12/12 06:24:11;;;;;;;19.50;10.55;;;;;;;3.50;81.83;100326.22;5047366;28;20474;-76
2020/12/12 06:27:09;;;;;;;20.33;10.80;;;;;;;3.52;81.79;100321.41;5079586;28;20033;-76
2020/12/12 06:29:40;;;;;;;18.25;9.98;;;;;;;3.56;81.63;100333.34;5046013;28;20045;-76
2020/12/12 06:32:05;;;;;;;19.02;10.15;;;;;;;3.58;81.41;100335.00;5048525;28;20470;-74
2020/12/12 06:34:50;;;;;;;19.17;10.48;;;;;;;3.59;81.83;100331.22;5050323;28;20028;-74
2020/12/12 06:37:25;;;;;;;19.00;9.88;;;;;;;3.61;81.89;100332.63;5047289;28;20041;-75
2020/12/12 06:39:51;;;;;;;18.60;11.05;;;;;;;3.63;81.76;100337.75;5060276;28;20390;-75
2020/12/12 06:42:28;;;;;;;17.50;10.40;;;;;;;3.64;81.94;100328.63;5053208;28;20024;-75
2020/12/12 06:44:53;;;;;;;17.73;10.15;;;;;;;3.65;81.79;100338.34;5086250;28;20438;-75
2020/12/12 06:47:19;;;;;;;18.88;10.48;;;;;;;3.66;81.94;100326.53;5052845;28;20032;-74
2020/12/12 06:49:45;;;;;;;20.00;11.10;;;;;;;3.68;81.82;100340.56;5068759;28;20025;-76
2020/12/12 06:52:27;;;;;;;19.58;10.80;;;;;;;3.67;82.02;100328.97;5035674;28;20033;-76
2020/12/12 06:55:06;;;;;;;18.80;10.60;;;;;;;3.69;82.08;100329.56;5035647;28;20475;-75
2020/12/12 06:57:35;;;;;;;19.33;10.40;;;;;;;3.70;82.08;100333.88;5047521;28;20052;-75
2020/12/12 07:00:00;;;;;;;18.30;10.40;;;;;;;3.70;81.87;100331.19;5035435;28;20130;-75
2020/12/12 07:02:26;;;;;;;19.15;10.48;;;;;;;3.72;81.85;100341.75;5052493;28;20029;-75
2020/12/12 07:04:51;;;;;;;21.10;11.05;;;;;;;3.72;81.78;100345.25;5050849;28;20025;-74
2020/12/12 07:07:16;;;;;;;17.00;9.82;;;;;;;3.74;81.84;100350.41;5051205;28;20029;-75
2020/12/12 07:09:42;;;;;;;21.58;11.40;;;;;;;3.75;81.84;100338.56;5053520;28;20029;-74
2020/12/12 07:12:08;;;;;;;17.95;10.63;;;;;;;3.77;82.30;100350.75;5051295;28;20021;-75
2020/12/12 07:14:35;;;;;;;19.65;10.32;;;;;;;3.78;82.14;100352.38;5050447;28;20100;-75
2020/12/12 07:17:01;;;;;;;17.83;10.85;;;;;;;3.80;82.43;100348.63;5084368;28;20140;-74
2020/12/12 07:19:39;;;;;;;22.25;12.05;;;;;;;3.82;82.13;100358.13;5053975;28;20478;-75
2020/12/12 07:22:06;;;;;;;17.70;10.35;;;;;;;3.82;82.40;100358.13;5051765;28;20425;-74
2020/12/12 07:24:32;;;;;;;21.10;11.65;;;;;;;3.84;82.62;100360.56;5050910;28;20025;-75
2020/12/12 07:26:58;;;;;;;19.02;11.02;;;;;;;3.85;82.23;100356.81;5083624;28;20028;-75
2020/12/12 07:29:24;;;;;;;22.42;12.27;;;;;;;3.84;82.09;100353.28;5016540;28;20519;-75
2020/12/12 07:31:50;;;;;;;20.33;11.85;;;;;;;3.86;82.53;100363.84;5046526;28;20110;-77
2020/12/12 07:34:17;;;;;;;22.33;11.93;;;;;;;3.86;82.28;100353.88;5052990;28;20111;-76
2020/12/12 07:36:42;;;;;;;20.23;12.27;;;;;;;3.87;82.29;100360.91;5033377;28;20037;-77
2020/12/12 07:39:11;;;;;;;19.30;11.35;;;;;;;3.89;82.74;100360.66;5051867;28;20075;-76
2020/12/12 07:41:43;;;;;;;17.30;11.02;;;;;;;3.88;82.50;100356.34;5050282;28;20044;-77
2020/12/12 07:44:08;;;;;;;23.50;11.83;;;;;;;3.88;82.63;100351.75;5050750;28;20516;-76
2020/12/12 07:46:40;;;;;;;21.05;11.00;;;;;;;3.89;82.77;100363.38;5035139;28;20274;-76
2020/12/12 07:49:09;;;;;;;24.55;12.27;;;;;;;3.89;82.60;100364.19;5050934;28;20077;-77
2020/12/12 07:51:34;;;;;;;22.70;11.50;;;;;;;3.91;82.32;100367.47;5033348;28;20039;-76
2020/12/12 07:54:00;;;;;;;22.05;11.45;;;;;;;3.91;82.43;100367.47;5050525;28;20025;-76
2020/12/12 07:56:27;;;;;;;20.15;11.82;;;;;;;3.92;82.59;100374.47;5045690;28;20024;-76
2020/12/12 07:59:06;;;;;;;22.33;11.40;;;;;;;3.92;82.68;100374.47;5077170;28;20018;-76
2020/12/12 08:01:32;;;;;;;18.55;10.98;;;;;;;3.92;82.95;100373.66;5047982;28;20025;-76
2020/12/12 08:03:57;;;;;;;26.77;12.30;;;;;;;3.93;82.69;100384.22;5051308;28;20494;-76
2020/12/12 08:06:25;;;;;;;23.60;11.77;;;;;;;3.94;82.90;100385.84;5051575;28;20025;-77
2020/12/12 08:08:55;;;;;;;26.13;12.85;;;;;;;3.95;82.90;100387.47;5049189;28;20029;-77
2020/12/12 08:11:20;;;;;;;24.15;12.60;;;;;;;3.96;82.64;100375.66;5048583;28;20406;-77
2020/12/12 08:13:45;;;;;;;20.05;11.60;;;;;;;3.96;82.98;100386.44;5035412;28;20017;-76
2020/12/12 08:16:28;;;;;;;24.02;11.40;;;;;;;3.97;83.18;100388.06;5050769;28;20029;-76
2020/12/12 08:19:03;;;;;;;19.75;11.32;;;;;;;3.98;82.90;100389.72;5049303;28;20027;-76
2020/12/12 08:21:29;;;;;;;19.33;11.48;;;;;;;4.02;82.76;100389.25;5048212;28;20032;-75
2020/12/12 08:23:54;;;;;;;20.35;11.25;;;;;;;4.03;82.98;100386.28;5045135;28;20033;-74
2020/12/12 08:26:20;;;;;;;21.95;12.35;;;;;;;4.04;82.86;100379.84;5033384;28;20047;-74
2020/12/12 08:28:46;;;;;;;24.23;11.63;;;;;;;4.06;83.06;100390.38;5077646;28;20049;-75
2020/12/12 08:31:13;;;;;;;20.52;11.43;;;;;;;4.08;83.06;100389.09;5034342;28;20048;-74
2020/12/12 08:33:38;;;;;;;20.75;11.88;;;;;;;4.10;82.88;100391.56;5047160;28;20371;-74
2020/12/12 08:36:14;;;;;;;18.83;10.60;;;;;;;4.10;83.25;100392.38;5046729;28;20024;-74
2020/12/12 08:38:40;;;;;;;18.38;11.45;;;;;;;4.14;82.87;100398.91;5035953;28;20013;-74
2020/12/12 08:41:12;;;;;;;17.60;10.65;;;;;;;4.16;83.15;100401.38;5068494;28;20456;-74
2020/12/12 08:43:38;;;;;;;18.83;10.88;;;;;;;4.17;83.30;100414.66;5051585;28;20052;-74
2020/12/12 08:46:03;;;;;;;22.15;11.20;;;;;;;4.19;83.27;100403.59;5049782;28;20037;-75
2020/12/12 08:48:30;;;;;;;17.88;11.18;;;;;;;4.20;83.27;100408.75;5042684;28;20129;-76
2020/12/12 08:50:57;;;;;;;17.23;9.90;;;;;;;4.20;83.01;100397.13;5075334;28;20350;-74
2020/12/12 08:53:31;;;;;;;20.10;10.95;;;;;;;4.22;83.24;100416.59;5043573;28;20024;-73
2020/12/12 08:56:06;;;;;;;19.38;12.52;;;;;;;4.22;83.02;100416.59;5050227;28;20029;-74
2020/12/12 08:58:48;;;;;;;17.80;10.27;;;;;;;4.23;83.22;100419.06;5049365;28;20045;-74
2020/12/12 09:01:15;;;;;;;17.65;10.18;;;;;;;4.23;83.38;100413.66;5047526;28;20102;-74
2020/12/12 09:03:59;;;;;;;17.90;10.32;;;;;;;4.24;83.28;100406.38;5050757;28;20025;-74
2020/12/12 09:06:25;;;;;;;21.20;11.65;;;;;;;4.25;83.14;100405.31;5046498;28;20597;-74
2020/12/12 09:09:11;;;;;;;20.42;10.63;;;;;;;4.25;83.24;100416.13;5046970;28;20037;-74
2020/12/12 09:11:37;;;;;;;20.67;11.40;;;;;;;4.26;83.47;100412.38;5049005;28;20032;-74
2020/12/12 09:14:03;;;;;;;22.55;11.10;;;;;;;4.27;83.49;100414.00;5049068;28;20464;-74
2020/12/12 09:16:28;;;;;;;22.00;11.45;;;;;;;4.29;83.30;100411.06;5041475;28;20059;-73
2020/12/12 09:18:54;;;;;;;21.17;11.65;;;;;;;4.30;83.43;100413.50;5048492;28;20036;-74
2020/12/12 09:21:19;;;;;;;18.20;10.32;;;;;;;4.32;83.32;100415.97;5049484;28;20029;-75
2020/12/12 09:23:45;;;;;;;17.23;10.68;;;;;;;4.31;83.56;100415.16;5046327;28;20036;-75
2020/12/12 09:26:10;;;;;;;19.00;11.13;;;;;;;4.35;83.69;100415.50;5046372;28;20367;-75
2020/12/12 09:28:36;;;;;;;18.88;10.43;;;;;;;4.36;83.41;100412.53;5050483;28;20067;-74
2020/12/12 09:31:01;;;;;;;20.33;10.18;;;;;;;4.37;83.52;100414.19;5040305;28;20040;-75
2020/12/12 09:33:26;;;;;;;18.02;11.25;;;;;;;4.40;83.42;100419.09;5048593;28;20069;-76
2020/12/12 09:35:52;;;;;;;19.00;10.55;;;;;;;4.43;83.35;100413.22;5048037;28;20033;-76
2020/12/12 09:38:17;;;;;;;17.98;10.20;;;;;;;4.47;83.34;100423.53;5048673;28;20315;-75
2020/12/12 09:40:43;;;;;;;20.13;10.88;;;;;;;4.49;83.13;100416.03;5042013;28;20413;-75
2020/12/12 09:43:09;;;;;;;16.48;10.15;;;;;;;4.52;83.32;100412.81;5040745;28;20478;-75
2020/12/12 09:45:34;;;;;;;18.50;10.32;;;;;;;4.54;83.14;100418.81;5040853;28;20483;-76
2020/12/12 09:48:00;;;;;;;19.70;10.23;;;;;;;4.55;83.33;100417.75;5041175;28;20100;-76
2020/12/12 09:50:33;;;;;;;18.17;10.68;;;;;;;4.55;83.50;100420.44;5040938;28;20200;-75
2020/12/12 09:53:00;;;;;;;16.73;10.77;;;;;;;4.58;83.31;100415.41;5041409;28;20120;-76
2020/12/12 09:55:26;;;;;;;19.23;9.95;;;;;;;4.59;83.29;100413.50;5072838;28;20482;-76
2020/12/12 09:57:51;;;;;;;17.73;10.43;;;;;;;4.61;83.04;100414.06;5041318;28;20028;-75
2020/12/12 10:00:16;;;;;;;15.68;10.10;;;;;;;4.64;83.34;100413.59;5022688;28;20021;-76
2020/12/12 10:02:42;;;;;;;16.85;11.25;;;;;;;4.66;83.32;100408.75;5056179;28;20560;-76
2020/12/12 10:05:07;;;;;;;17.05;9.50;;;;;;;4.67;83.11;100418.50;5040532;28;20039;-75
2020/12/12 10:07:33;;;;;;;16.77;9.95;;;;;;;4.68;83.48;100418.25;5039579;28;20486;-76
2020/12/12 10:09:58;;;;;;;17.42;9.75;;;;;;;4.70;83.25;100423.41;5041253;28;20039;-76
2020/12/12 10:12:23;;;;;;;16.08;10.13;;;;;;;4.72;83.15;100426.69;5040125;28;20027;-75
2020/12/12 10:14:49;;;;;;;15.82;9.95;;;;;;;4.73;83.20;100417.53;5055840;28;20025;-75
2020/12/12 10:17:14;;;;;;;16.58;9.13;;;;;;;4.74;83.04;100412.94;5046142;28;20025;-75
2020/12/12 10:19:39;;;;;;;15.98;9.35;;;;;;;4.73;83.06;100417.53;5044702;28;20021;-75
2020/12/12 10:22:05;;;;;;;15.57;8.98;;;;;;;4.74;83.00;100419.16;5085834;28;20037;-76
2020/12/12 10:24:30;;;;;;;14.40;9.20;;;;;;;4.75;83.14;100403.78;5051529;28;20021;-76
2020/12/12 10:26:56;;;;;;;14.00;8.85;;;;;;;4.76;83.00;100416.22;5063950;28;20033;-75
2020/12/12 10:29:21;;;;;;;19.55;10.02;;;;;;;4.78;82.77;100420.31;5047422;28;20078;-75
2020/12/12 10:31:46;;;;;;;13.52;9.20;;;;;;;4.80;83.03;100412.78;5046581;28;20088;-76
2020/12/12 10:34:12;;;;;;;15.98;9.45;;;;;;;4.81;82.86;100414.41;5047204;28;20494;-76
2020/12/12 10:36:37;;;;;;;13.15;8.82;;;;;;;4.83;82.98;100408.78;5054966;28;20098;-75
2020/12/12 10:39:03;;;;;;;17.33;9.93;;;;;;;4.84;82.95;100418.53;5051788;28;20526;-75
2020/12/12 10:41:31;;;;;;;13.43;7.68;;;;;;;4.88;82.80;100425.06;5052915;28;20044;-75
2020/12/12 10:43:57;;;;;;;15.15;8.60;;;;;;;4.91;82.56;100419.19;5045802;28;20080;-76
2020/12/12 10:46:22;;;;;;;14.13;8.95;;;;;;;4.94;82.78;100423.25;5076865;28;20111;-73
2020/12/12 10:48:48;;;;;;;13.88;8.70;;;;;;;4.96;82.72;100415.72;5052430;28;20033;-73
2020/12/12 10:51:16;;;;;;;15.15;8.95;;;;;;;5.00;82.79;100416.91;5053604;28;20489;-73
2020/12/12 10:53:42;;;;;;;13.90;8.07;;;;;;;5.02;82.63;100414.75;5052557;28;20441;-72
2020/12/12 10:56:07;;;;;;;14.32;8.18;;;;;;;5.03;82.51;100413.69;5052491;28;20021;-71
2020/12/12 10:58:32;;;;;;;12.73;7.63;;;;;;;5.04;82.57;100420.72;5045766;28;20165;-73
2020/12/12 11:00:58;;;;;;;14.82;8.27;;;;;;;5.03;82.49;100417.22;5049506;28;20032;-73
2020/12/12 11:03:23;;;;;;;11.70;7.75;;;;;;;5.03;82.47;100409.09;5053874;28;20028;-73
2020/12/12 11:05:49;;;;;;;14.50;8.57;;;;;;;5.03;82.51;100416.41;5054185;28;20424;-72
2020/12/12 11:08:15;;;;;;;10.02;7.63;;;;;;;5.02;82.48;100412.88;5053166;28;20021;-73
2020/12/12 11:10:40;;;;;;;11.38;8.18;;;;;;;5.04;82.27;100415.31;5054105;28;20032;-72
2020/12/12 11:13:05;;;;;;;12.40;8.32;;;;;;;5.05;82.27;100419.69;5052111;28;20040;-73
2020/12/12 11:15:31;;;;;;;12.23;7.97;;;;;;;5.07;82.47;100417.53;5053630;28;20098;-73
2020/12/12 11:17:56;;;;;;;14.70;8.57;;;;;;;5.08;82.44;100420.00;5053402;28;20399;-72
2020/12/12 11:20:22;;;;;;;13.60;7.97;;;;;;;5.09;82.38;100418.09;5052400;28;20041;-73